Details From SBGL - Galeao Antonio Carlos Jombim
To SBAF - Campo Delio Jardim de Mattos
Flight Number -
Tags generated
Created
Modified
Stats Distance 9 nm / 16 km
Max Altitude 0 ft / 0 m
Waypoints 2
Social Downloads 4
Likes 0
Share VATSIM

Download

Looking for another format? Having issues loading an existing format? Contact us
Advertisement - Login to hide

Notes

Basic altitude profile: - Ascent Rate: 2000ft/min - Ascent Speed: 250kts - Cruise Altitude: 5000ft - Cruise Speed: 300kts - Descent Rate: 1500ft/min - Descent Speed: 250kts Options: - Use NATs: yes - Use PACOTS: yes - Use low airways: yes - Use high airways: yes

Route

SBGL SBAF

ID Type Via Altitude Latitude Longitude Leg Dist Tot Dist Heading (true) Name
O SBGL APT - 0 ft / 0 m -22.80894˚ -43.24368˚ - 0 nm - Galeao Antonio Carlos Jombim
O SBAF APT - 0 ft / 0 m -22.87508˚ -43.38471˚ 8 nm 8 nm 243° / 243° Campo Delio Jardim de Mattos

Altitude Profile

Advertisement - Login to hide

SBGL

Details ICAO SBGL (GIG)
Name Galeao Antonio Carlos Jombim
Region Brazil
Timezone America/Sao_Paulo (UTC-3.0)
Stats Elevation 28 ft / 9 m (AMSL)
Location -22.808938° -43.243681°
Runways 2
Magnetic Variation 22.819° W

METAR

SBGL 220500Z 33003KT 8000 NSC 19/18 Q1018

Decode

TAF

TAF SBGL 212030Z 2200/2306 11005KT CAVOK TN18/2209Z TX29/2217Z BECMG 2200/2202 34004KT BECMG 2206/2209 3000 BR BKN007 BECMG 2213/2215 04005KT CAVOK BECMG 2218/2220 13010KT BECMG 2300/2302 28005KT RMK PHI

Decode

Departure Runways

ID Width Length Bearing (true) Bearing (mag) Surface Threshold Offset Overrun Length
10 148 ft / 45 m 13,128 ft / 4,001 m 74.39° 97.21° Concrete 0 ft / 0 m 175 ft / 53 m
15 154 ft / 47 m 10,418 ft / 3,175 m 125.78° 148.60° Asphalt 0 ft / 0 m 185 ft / 56 m
28 148 ft / 45 m 13,128 ft / 4,001 m 254.38° 277.20° Concrete 0 ft / 0 m 175 ft / 53 m
33 154 ft / 47 m 10,418 ft / 3,175 m 305.78° 328.60° Asphalt 0 ft / 0 m 185 ft / 56 m

SBAF

Details ICAO SBAF
Name Campo Delio Jardim de Mattos
Region Brazil
Timezone America/Sao_Paulo (UTC-3.0)
Stats Elevation 110 ft / 34 m (AMSL)
Location -22.875083° -43.384709°
Runways 1
Magnetic Variation 22.762° W

METAR

Not found

TAF

TAF TAF SBAF 211500Z 2118/2206 14006KT CAVOK TX28/2118Z TN18/2206Z BECMG 2200/2202 31004KT 7000 NSC RMK PDW

Decode

Destination Runways

ID Width Length Bearing (true) Bearing (mag) Surface Threshold Offset Overrun Length
08 171 ft / 52 m 6,527 ft / 1,990 m 61.63° 84.39° Concrete 0 ft / 0 m 0 ft / 0 m
26 171 ft / 52 m 6,527 ft / 1,990 m 241.63° 264.39° Concrete 0 ft / 0 m 0 ft / 0 m

Approach Navaids

Runway Type Ident Frequency Range Bearing (true) Bearing (mag) Slope Elevation
26 Localiser IAF 109.70 MHz 18 nm / 33 km 240.18° 262.95° - 110 ft / 34 m (AMSL)

Popular Alternatives